Time;durP1;ratioP1;P1;durP2;ratioP2;P2;SDS_P1;SDS_P2;PMS_P1;PMS_P2;Temp;Humidity;BMP_temperature;BMP_pressure;BME280_temperature;BME280_humidity;BME280_pressure;Samples;Min_cycle;Max_cycle;Signal;HPM_P1;HPM_P2
2022/12/13 00:01:44;;;;;;;48.88;30.48;;;-3273.30;90.00;;;;;;5030707;28;20045;-75
2022/12/13 00:04:20;;;;;;;51.67;32.45;;;-3273.40;90.00;;;;;;5035119;28;20072;-77
2022/12/13 00:06:48;;;;;;;53.88;32.83;;;-3273.30;90.00;;;;;;5031496;28;20470;-76
2022/12/13 00:09:16;;;;;;;53.17;33.22;;;-3273.30;90.00;;;;;;5041199;28;20041;-76
2022/12/13 00:11:42;;;;;;;56.03;32.08;;;-3273.30;90.10;;;;;;5045035;28;20087;-76
2022/12/13 00:14:08;;;;;;;53.10;33.28;;;-3273.40;90.10;;;;;;5048185;28;20043;-81
2022/12/13 00:16:33;;;;;;;58.00;34.35;;;-3273.30;90.00;;;;;;5041458;28;20728;-77
2022/12/13 00:18:59;;;;;;;49.92;31.55;;;-3273.40;90.10;;;;;;5043591;28;20718;-75
2022/12/13 00:21:29;;;;;;;49.47;30.67;;;-3273.40;90.00;;;;;;5026739;28;20033;-76
2022/12/13 00:23:58;;;;;;;48.60;32.17;;;-3273.30;90.10;;;;;;5040198;28;20367;-74
2022/12/13 00:26:30;;;;;;;48.00;31.80;;;-3273.30;90.10;;;;;;5033188;28;20024;-76
2022/12/13 00:28:57;;;;;;;49.63;30.90;;;-3273.30;90.10;;;;;;5029976;28;20045;-75
2022/12/13 00:31:24;;;;;;;55.85;32.65;;;-3273.30;90.20;;;;;;5035448;28;20180;-76
2022/12/13 00:33:53;;;;;;;53.13;31.48;;;-3273.30;90.30;;;;;;5036427;28;20029;-75
2022/12/13 00:36:18;;;;;;;49.42;30.33;;;-3273.30;90.20;;;;;;5038906;28;20355;-76
2022/12/13 00:38:59;;;;;;;50.00;30.65;;;-3273.30;90.20;;;;;;5043883;28;20090;-78
2022/12/13 00:41:26;;;;;;;50.65;31.52;;;-3273.20;90.30;;;;;;5037353;28;20369;-79
2022/12/13 00:43:51;;;;;;;50.50;30.45;;;-3273.20;90.20;;;;;;5038220;28;20036;-75
2022/12/13 00:46:29;;;;;;;48.28;29.30;;;-3273.20;90.30;;;;;;5032809;28;20033;-77
2022/12/13 00:48:57;;;;;;;49.13;30.02;;;-3273.20;90.40;;;;;;5038060;28;20037;-78
2022/12/13 00:51:24;;;;;;;53.67;30.23;;;-3273.20;90.30;;;;;;5038305;28;20029;-76
2022/12/13 00:53:50;;;;;;;51.53;30.33;;;-3273.20;90.40;;;;;;5032075;28;20428;-75
2022/12/13 00:56:20;;;;;;;46.78;30.17;;;-3273.10;90.50;;;;;;5026119;28;20029;-76
2022/12/13 00:58:48;;;;;;;49.78;30.00;;;-3273.20;90.50;;;;;;5039822;28;20068;-76
2022/12/13 01:01:16;;;;;;;48.17;29.63;;;-3273.10;90.40;;;;;;5035921;28;20143;-73
2022/12/13 01:03:42;;;;;;;49.72;30.08;;;-3273.10;90.40;;;;;;5037307;28;20044;-78
2022/12/13 01:06:09;;;;;;;49.28;28.85;;;-3273.10;90.40;;;;;;5041893;28;20033;-76
2022/12/13 01:08:37;;;;;;;47.58;29.90;;;-3273.00;90.40;;;;;;5036588;28;20060;-74
2022/12/13 01:11:04;;;;;;;55.25;31.15;;;-3273.00;90.40;;;;;;5038162;28;20431;-79
2022/12/13 01:13:32;;;;;;;48.33;30.38;;;-3273.00;90.50;;;;;;5043367;28;20045;-75
2022/12/13 01:16:04;;;;;;;47.88;29.48;;;-3273.00;90.40;;;;;;5036866;28;20029;-78
2022/12/13 01:18:32;;;;;;;46.85;29.63;;;-3273.00;90.50;;;;;;5037306;28;20041;-75
2022/12/13 01:21:03;;;;;;;49.40;30.17;;;-3273.00;90.40;;;;;;5034797;28;20425;-76
2022/12/13 01:23:32;;;;;;;48.45;28.80;;;-3273.00;90.30;;;;;;5040094;28;20033;-76
2022/12/13 01:26:00;;;;;;;45.33;28.60;;;-3272.90;90.20;;;;;;5042388;28;20021;-75
2022/12/13 01:28:30;;;;;;;49.67;29.02;;;-3272.90;90.20;;;;;;5029115;28;21424;-79
2022/12/13 01:30:58;;;;;;;47.08;28.65;;;-3272.90;90.20;;;;;;5037222;28;20045;-77
2022/12/13 01:33:24;;;;;;;46.92;29.67;;;-3272.80;90.10;;;;;;5024320;28;20509;-72
2022/12/13 01:35:53;;;;;;;49.33;28.92;;;-3272.80;90.10;;;;;;5030262;28;20369;-76
2022/12/13 01:38:19;;;;;;;43.50;27.48;;;-3272.70;90.10;;;;;;5032312;28;20037;-75
2022/12/13 01:40:56;;;;;;;42.08;27.85;;;-3272.70;90.20;;;;;;5035566;28;20045;-75
2022/12/13 01:43:38;;;;;;;44.33;27.88;;;-3272.70;90.20;;;;;;5032108;28;20457;-76
2022/12/13 01:46:04;;;;;;;52.50;29.02;;;-3272.70;90.10;;;;;;5017628;28;20054;-77
2022/12/13 01:48:41;;;;;;;46.58;27.33;;;-3272.60;90.20;;;;;;5020641;28;20394;-79
2022/12/13 01:51:09;;;;;;;45.28;28.50;;;-3272.70;90.20;;;;;;5019596;28;20041;-78
2022/12/13 01:53:37;;;;;;;47.30;29.27;;;-3272.70;90.20;;;;;;5035001;28;20428;-75
2022/12/13 01:56:15;;;;;;;43.53;27.42;;;-3272.70;90.20;;;;;;5037790;28;20037;-76
2022/12/13 01:58:43;;;;;;;41.95;27.45;;;-3272.70;90.10;;;;;;5029003;28;20045;-76
2022/12/13 02:01:09;;;;;;;51.55;29.20;;;-3272.70;90.10;;;;;;5026195;28;20808;-79
2022/12/13 02:03:37;;;;;;;46.95;28.25;;;-3272.80;90.00;;;;;;5031915;28;20103;-74
2022/12/13 02:06:15;;;;;;;47.45;30.08;;;-3272.70;90.00;;;;;;5036528;28;20038;-76
2022/12/13 02:08:50;;;;;;;44.38;27.77;;;-3272.70;89.90;;;;;;5037197;28;20094;-76
2022/12/13 02:11:21;;;;;;;46.03;29.55;;;-3272.60;89.90;;;;;;5029087;28;20484;-79
2022/12/13 02:13:47;;;;;;;49.58;29.17;;;-3272.60;89.90;;;;;;5027385;28;20441;-77
2022/12/13 02:16:34;;;;;;;49.33;29.80;;;-3272.60;90.00;;;;;;5031917;28;20033;-75
2022/12/13 02:19:06;;;;;;;49.13;28.98;;;-3272.70;90.00;;;;;;5039432;28;20401;-76
2022/12/13 02:22:26;;;;;;;46.70;30.13;;;-3272.70;90.00;;;;;;5032101;28;20309;-75
2022/12/13 02:25:07;;;;;;;48.53;28.83;;;-3272.70;90.20;;;;;;5036848;28;20124;-78
2022/12/13 02:27:59;;;;;;;44.13;25.92;;;-3272.70;90.10;;;;;;5046420;28;20049;-75
2022/12/13 02:30:31;;;;;;;44.10;27.83;;;-3272.70;90.10;;;;;;5035782;28;20112;-73
2022/12/13 02:33:25;;;;;;;48.42;27.90;;;-3272.60;90.00;;;;;;5030886;28;20035;-73
2022/12/13 02:36:05;;;;;;;45.28;25.63;;;-3272.60;90.00;;;;;;5033552;28;20465;-77
2022/12/13 02:38:54;;;;;;;47.70;27.13;;;-3272.60;90.00;;;;;;5042998;28;20095;-78
2022/12/13 02:41:55;;;;;;;41.30;26.20;;;-3272.60;90.10;;;;;;5040600;28;20041;-76
2022/12/13 02:44:23;;;;;;;42.22;26.02;;;-3272.50;90.00;;;;;;5041155;28;21129;-82
2022/12/13 02:47:31;;;;;;;44.72;27.23;;;-3272.40;90.00;;;;;;5051077;28;20453;-77
2022/12/13 02:50:01;;;;;;;47.50;26.73;;;-3272.40;90.20;;;;;;5041347;28;20497;-74
2022/12/13 02:52:38;;;;;;;46.78;26.25;;;-3272.50;90.20;;;;;;5032875;28;20060;-74
2022/12/13 02:55:11;;;;;;;45.22;26.88;;;-3272.50;90.20;;;;;;5040961;28;20041;-74
2022/12/13 02:57:43;;;;;;;46.40;26.90;;;-3272.50;90.20;;;;;;5032572;28;20485;-77
2022/12/13 03:00:14;;;;;;;49.72;27.33;;;-3272.60;90.30;;;;;;5037105;28;20044;-79
2022/12/13 03:02:58;;;;;;;62.95;30.60;;;-3272.60;90.20;;;;;;5039227;28;20059;-76
2022/12/13 03:08:46;;;;;;;49.28;27.27;;;-3272.70;90.20;;;;;;5031329;28;20124;-75
2022/12/13 03:11:16;;;;;;;46.30;27.45;;;-3272.70;90.20;;;;;;5040798;28;20513;-78
2022/12/13 03:14:03;;;;;;;46.08;26.73;;;-3272.70;90.10;;;;;;5032908;28;20455;-74
2022/12/13 03:16:42;;;;;;;44.58;26.73;;;-3272.60;90.10;;;;;;5033758;28;20034;-81
2022/12/13 03:19:11;;;;;;;50.15;27.48;;;-3272.60;90.10;;;;;;5033858;28;20065;-77
2022/12/13 03:21:48;;;;;;;47.72;25.88;;;-3272.60;90.10;;;;;;5039957;28;20028;-75
2022/12/13 03:24:20;;;;;;;50.33;27.55;;;-3272.60;90.10;;;;;;5037090;28;20462;-73
2022/12/13 03:26:52;;;;;;;47.47;26.45;;;-3272.60;90.30;;;;;;5034909;28;20125;-75
2022/12/13 03:29:18;;;;;;;46.65;26.58;;;-3272.60;90.50;;;;;;5040136;28;20037;-77
2022/12/13 03:31:46;;;;;;;48.22;27.08;;;-3272.70;90.50;;;;;;5043213;28;20039;-76
2022/12/13 03:34:16;;;;;;;48.47;27.63;;;-3272.60;90.50;;;;;;5035157;28;20026;-79
2022/12/13 03:36:41;;;;;;;43.97;27.08;;;-3272.70;90.70;;;;;;5033973;28;20068;-74
2022/12/13 03:39:07;;;;;;;43.08;26.30;;;-3272.80;90.60;;;;;;5034685;28;20505;-78
2022/12/13 03:41:33;;;;;;;50.22;27.73;;;-3272.80;90.50;;;;;;5037779;28;20025;-74
2022/12/13 03:44:03;;;;;;;51.35;27.38;;;-3272.80;90.50;;;;;;5035436;28;20473;-74
2022/12/13 03:46:33;;;;;;;50.97;27.90;;;-3272.80;90.50;;;;;;5029158;28;20041;-77
2022/12/13 03:49:01;;;;;;;45.75;26.08;;;-3272.80;90.40;;;;;;5038969;28;20057;-74
2022/12/13 03:51:26;;;;;;;42.65;25.05;;;-3272.80;90.30;;;;;;5039256;28;20417;-73
2022/12/13 03:53:56;;;;;;;45.65;25.83;;;-3272.80;90.40;;;;;;5043184;28;20028;-77
2022/12/13 03:56:22;;;;;;;42.95;25.48;;;-3272.70;90.30;;;;;;5039693;28;20341;-77
2022/12/13 03:58:50;;;;;;;48.05;27.17;;;-3272.70;90.30;;;;;;5038176;28;20087;-76
2022/12/13 04:01:16;;;;;;;42.42;26.05;;;-3272.70;90.30;;;;;;5038873;28;20048;-79
2022/12/13 04:03:44;;;;;;;44.72;25.40;;;-3272.70;90.20;;;;;;5038952;28;20124;-79
2022/12/13 04:06:13;;;;;;;41.05;23.38;;;-3272.60;90.20;;;;;;5038467;28;20043;-74
2022/12/13 04:08:49;;;;;;;41.45;25.20;;;-3272.60;90.30;;;;;;5041873;28;20093;-78
2022/12/13 04:14:04;;;;;;;40.90;24.50;;;-3272.50;90.40;;;;;;5027283;28;20064;-78
2022/12/13 04:16:32;;;;;;;42.67;24.33;;;-3272.50;90.40;;;;;;5038303;28;20260;-76
2022/12/13 04:18:57;;;;;;;44.92;25.65;;;-3272.50;90.40;;;;;;5037964;28;20387;-75
2022/12/13 04:21:25;;;;;;;42.28;24.10;;;-3272.40;90.40;;;;;;5032652;28;20119;-77
2022/12/13 04:23:58;;;;;;;43.03;24.65;;;-3272.40;90.50;;;;;;5037731;28;20045;-76
2022/12/13 04:26:28;;;;;;;39.45;23.70;;;-3272.40;90.50;;;;;;5040480;28;20041;-74
2022/12/13 04:28:54;;;;;;;43.20;24.95;;;-3272.40;90.50;;;;;;5032289;28;20076;-76
2022/12/13 04:31:20;;;;;;;41.33;25.10;;;-3272.40;90.50;;;;;;5037394;28;20508;-77
2022/12/13 04:33:50;;;;;;;39.67;24.38;;;-3272.40;90.50;;;;;;5033579;28;20116;-75
2022/12/13 04:36:21;;;;;;;45.63;25.83;;;-3272.40;90.40;;;;;;5033949;28;20040;-75
2022/12/13 04:38:49;;;;;;;45.60;25.67;;;-3272.40;90.30;;;;;;5031945;28;20041;-79
2022/12/13 04:41:17;;;;;;;47.08;25.70;;;-3272.40;90.30;;;;;;5038641;28;20414;-78
2022/12/13 04:43:43;;;;;;;46.40;25.85;;;-3272.30;90.20;;;;;;5036742;28;20415;-75
2022/12/13 04:46:13;;;;;;;44.03;26.02;;;-3272.40;90.20;;;;;;5029586;28;20037;-79
2022/12/13 04:48:41;;;;;;;42.95;24.63;;;-3272.40;90.20;;;;;;5043086;28;20045;-77
2022/12/13 04:51:07;;;;;;;44.13;26.00;;;-3272.40;90.20;;;;;;5046198;28;20033;-76
2022/12/13 04:53:32;;;;;;;49.47;26.83;;;-3272.40;90.20;;;;;;5048962;28;20032;-76
2022/12/13 04:56:13;;;;;;;46.78;26.48;;;-3272.40;90.30;;;;;;5036857;28;20041;-77
2022/12/13 04:58:41;;;;;;;47.70;27.00;;;-3272.40;90.40;;;;;;5026797;28;20087;-75
2022/12/13 05:01:07;;;;;;;51.92;28.75;;;-3272.30;90.50;;;;;;5039387;28;20036;-75
2022/12/13 05:03:34;;;;;;;46.75;28.25;;;-3272.30;90.60;;;;;;5028088;28;20049;-76
2022/12/13 05:06:04;;;;;;;48.05;27.05;;;-3272.40;90.70;;;;;;5034355;28;20049;-77
2022/12/13 05:08:29;;;;;;;47.53;28.27;;;-3272.40;90.70;;;;;;5033268;28;20109;-75
2022/12/13 05:10:55;;;;;;;48.65;28.50;;;-3272.40;90.70;;;;;;5032607;28;20549;-79
2022/12/13 05:13:21;;;;;;;47.70;26.63;;;-3272.40;90.70;;;;;;5033458;28;20048;-74
2022/12/13 05:15:57;;;;;;;48.15;27.48;;;-3272.40;90.70;;;;;;5028077;28;20037;-74
2022/12/13 05:18:26;;;;;;;54.40;28.60;;;-3272.40;90.80;;;;;;5027338;28;20041;-79
2022/12/13 05:20:54;;;;;;;43.60;25.85;;;-3272.40;90.80;;;;;;5034049;28;20045;-77
2022/12/13 05:23:23;;;;;;;47.67;28.10;;;-3272.40;90.80;;;;;;5028522;28;20049;-75
2022/12/13 05:25:49;;;;;;;41.88;25.58;;;-3272.30;90.70;;;;;;5031867;28;20052;-73
2022/12/13 05:28:17;;;;;;;43.28;26.00;;;-3272.30;90.80;;;;;;5031376;28;20132;-80
2022/12/13 05:30:44;;;;;;;45.65;27.30;;;-3272.30;90.90;;;;;;5025844;28;20080;-74
2022/12/13 05:33:16;;;;;;;46.28;26.35;;;-3272.30;90.90;;;;;;5033100;28;20414;-75
2022/12/13 05:35:41;;;;;;;47.83;27.45;;;-3272.20;91.00;;;;;;5034113;28;20033;-78
2022/12/13 05:38:07;;;;;;;52.05;27.45;;;-3272.30;91.00;;;;;;5034327;28;20374;-79
2022/12/13 05:40:40;;;;;;;49.47;27.77;;;-3272.30;91.00;;;;;;5033945;28;20155;-77
2022/12/13 05:43:08;;;;;;;50.78;27.98;;;-3272.30;91.00;;;;;;5030071;28;20100;-80
2022/12/13 05:45:34;;;;;;;46.38;28.35;;;-3272.20;91.00;;;;;;5030702;28;20183;-74
2022/12/13 05:48:01;;;;;;;45.08;27.77;;;-3272.30;91.00;;;;;;5026823;28;20494;-76
2022/12/13 05:50:32;;;;;;;41.38;26.33;;;-3272.30;91.00;;;;;;5024143;28;20115;-76
2022/12/13 05:53:02;;;;;;;49.65;28.55;;;-3272.30;90.90;;;;;;5028814;28;20048;-75
2022/12/13 05:55:27;;;;;;;47.10;26.60;;;-3272.30;90.70;;;;;;5029330;28;20037;-75
2022/12/13 05:57:55;;;;;;;45.42;26.75;;;-3272.20;90.70;;;;;;5031283;28;20422;-75
2022/12/13 06:00:21;;;;;;;43.58;25.50;;;-3272.20;90.60;;;;;;5034458;28;20064;-80
2022/12/13 06:02:47;;;;;;;41.53;26.02;;;-3272.10;90.60;;;;;;5034290;28;20156;-74
2022/12/13 06:05:12;;;;;;;47.45;28.35;;;-3272.10;90.60;;;;;;5024813;28;20124;-73
2022/12/13 06:07:45;;;;;;;46.40;27.92;;;-3272.10;90.60;;;;;;5033880;28;20042;-74
2022/12/13 06:10:11;;;;;;;46.60;28.45;;;-3272.00;90.70;;;;;;5035188;28;20041;-75
2022/12/13 06:12:37;;;;;;;44.78;28.20;;;-3272.00;90.70;;;;;;5029780;28;20417;-78
2022/12/13 06:15:04;;;;;;;45.83;27.25;;;-3272.00;90.70;;;;;;5036129;28;20065;-74
2022/12/13 06:17:36;;;;;;;50.20;29.67;;;-3272.00;90.70;;;;;;5029629;28;20053;-74
2022/12/13 06:20:15;;;;;;;55.35;30.00;;;-3272.00;90.70;;;;;;5031318;28;20041;-75
2022/12/13 06:22:50;;;;;;;49.03;29.80;;;-3272.00;90.80;;;;;;5032497;28;20417;-75
2022/12/13 06:25:16;;;;;;;51.03;29.52;;;-3272.00;90.70;;;;;;5028203;28;20051;-75
2022/12/13 06:27:46;;;;;;;51.05;29.48;;;-3272.00;90.70;;;;;;5031893;28;20060;-75
2022/12/13 06:30:14;;;;;;;56.92;32.60;;;-3272.00;90.80;;;;;;5027638;28;20114;-75
2022/12/13 06:32:42;;;;;;;53.10;31.98;;;-3272.00;90.90;;;;;;5033985;28;20558;-75
2022/12/13 06:35:13;;;;;;;57.53;32.42;;;-3271.90;90.90;;;;;;5031250;28;20045;-74
2022/12/13 06:37:42;;;;;;;51.30;29.88;;;-3271.90;91.00;;;;;;5035533;28;20029;-75
2022/12/13 06:40:13;;;;;;;53.88;32.80;;;-3272.00;91.10;;;;;;5028021;28;20037;-76
2022/12/13 06:42:39;;;;;;;53.63;30.35;;;-3272.00;91.10;;;;;;5030934;28;20029;-74
2022/12/13 06:45:05;;;;;;;51.85;30.67;;;-3272.00;91.10;;;;;;5039868;28;20213;-76
2022/12/13 06:47:33;;;;;;;57.20;33.60;;;-3272.00;91.10;;;;;;5030452;28;20037;-77
2022/12/13 06:50:02;;;;;;;52.95;33.60;;;-3272.00;91.10;;;;;;5041055;28;20061;-76
2022/12/13 06:52:27;;;;;;;56.25;34.08;;;-3272.00;91.10;;;;;;5039441;28;20048;-75
2022/12/13 06:54:53;;;;;;;61.47;34.20;;;-3272.00;91.10;;;;;;5034266;28;20037;-74
2022/12/13 06:57:21;;;;;;;55.20;31.50;;;-3272.00;91.00;;;;;;5028777;28;20041;-76
2022/12/13 06:59:46;;;;;;;54.75;33.05;;;-3272.00;91.00;;;;;;5034862;28;20083;-77
2022/12/13 07:02:12;;;;;;;54.10;31.98;;;-3272.00;90.90;;;;;;5031456;28;20839;-74
2022/12/13 07:04:38;;;;;;;54.35;32.22;;;-3272.00;91.00;;;;;;5043222;28;20037;-73
2022/12/13 07:07:04;;;;;;;52.78;31.63;;;-3272.10;91.00;;;;;;5034862;28;20052;-76
2022/12/13 07:09:31;;;;;;;58.65;32.92;;;-3272.10;90.80;;;;;;5033845;28;20037;-80
2022/12/13 07:11:57;;;;;;;55.25;32.63;;;-3272.00;90.80;;;;;;5039882;28;20041;-77
2022/12/13 07:14:25;;;;;;;54.13;33.28;;;-3272.10;90.80;;;;;;5032736;28;20152;-76
2022/12/13 07:16:53;;;;;;;55.95;31.08;;;-3272.10;90.70;;;;;;5036993;28;20213;-77
2022/12/13 07:19:21;;;;;;;52.33;30.95;;;-3272.10;90.60;;;;;;5037172;28;20030;-75
2022/12/13 07:21:46;;;;;;;57.22;31.73;;;-3272.10;90.60;;;;;;5041433;28;20037;-74
2022/12/13 07:24:16;;;;;;;55.10;33.08;;;-3272.10;90.60;;;;;;5030675;28;20048;-79
2022/12/13 07:26:42;;;;;;;56.78;32.85;;;-3272.10;90.60;;;;;;5029579;28;20026;-76
2022/12/13 07:29:08;;;;;;;53.00;29.90;;;-3272.20;90.60;;;;;;5044270;28;20040;-76
2022/12/13 07:31:36;;;;;;;52.95;30.48;;;-3272.10;90.50;;;;;;5035920;28;20055;-79
2022/12/13 07:34:02;;;;;;;46.08;29.92;;;-3272.20;90.50;;;;;;5033734;28;20050;-75
2022/12/13 07:36:35;;;;;;;47.90;29.85;;;-3272.10;90.40;;;;;;5029916;28;20066;-77
2022/12/13 07:39:01;;;;;;;49.22;31.52;;;-3272.10;90.40;;;;;;5035342;28;20045;-76
2022/12/13 07:41:31;;;;;;;53.72;31.65;;;-3272.10;90.50;;;;;;5044456;28;20530;-81
2022/12/13 07:44:04;;;;;;;52.03;30.55;;;-3272.10;90.60;;;;;;5032612;28;20057;-80
2022/12/13 07:46:30;;;;;;;51.40;32.67;;;-3272.10;90.60;;;;;;5033201;28;20037;-77
2022/12/13 07:48:55;;;;;;;51.80;32.83;;;-3272.10;90.70;;;;;;5033749;28;20060;-75
2022/12/13 07:51:21;;;;;;;51.85;30.85;;;-3272.10;90.70;;;;;;5029484;28;20155;-74
2022/12/13 07:53:49;;;;;;;50.67;32.13;;;-3272.10;90.70;;;;;;5027063;28;20394;-77
2022/12/13 07:56:16;;;;;;;51.85;33.53;;;-3272.10;90.80;;;;;;5034736;28;20072;-76
2022/12/13 07:58:46;;;;;;;50.25;30.20;;;-3272.10;90.60;;;;;;5033487;28;20072;-76
2022/12/13 08:01:12;;;;;;;47.95;30.02;;;-3272.20;90.60;;;;;;5035055;28;20334;-76
2022/12/13 08:03:38;;;;;;;61.00;39.08;;;-3272.20;90.60;;;;;;5032430;28;20533;-75
2022/12/13 08:06:13;;;;;;;70.75;42.50;;;-3272.20;90.30;;;;;;5032568;28;20033;-74
2022/12/13 08:08:39;;;;;;;65.47;42.25;;;-3272.10;90.20;;;;;;5032962;28;20492;-74
2022/12/13 08:11:09;;;;;;;76.13;42.25;;;-3272.30;90.20;;;;;;5030555;28;20041;-78
2022/12/13 08:13:35;;;;;;;80.05;42.95;;;-3272.20;90.10;;;;;;5038506;28;20040;-75
2022/12/13 08:16:08;;;;;;;68.10;35.85;;;-3272.30;90.00;;;;;;5027447;28;20029;-76
2022/12/13 08:18:34;;;;;;;65.45;36.60;;;-3272.40;90.10;;;;;;5028537;28;20080;-78
2022/12/13 08:21:05;;;;;;;57.58;32.97;;;-3272.50;89.90;;;;;;5034205;28;20419;-81
2022/12/13 08:23:35;;;;;;;61.25;35.85;;;-3272.50;89.80;;;;;;5035057;28;20399;-78
2022/12/13 08:26:05;;;;;;;52.88;32.42;;;-3272.50;89.60;;;;;;5034117;28;20048;-80
2022/12/13 08:28:32;;;;;;;56.33;32.30;;;-3272.50;89.60;;;;;;5041788;28;20041;-79
2022/12/13 08:31:11;;;;;;;50.33;31.58;;;-3272.60;89.70;;;;;;5031425;28;20209;-78
2022/12/13 08:33:38;;;;;;;51.08;32.17;;;-3272.70;89.60;;;;;;5036137;28;20417;-80
2022/12/13 08:36:14;;;;;;;51.22;31.60;;;-3272.80;89.50;;;;;;5034588;28;20037;-79
2022/12/13 08:38:40;;;;;;;49.58;29.95;;;-3272.80;89.40;;;;;;5031082;28;20031;-77
2022/12/13 08:41:07;;;;;;;51.97;30.42;;;-3272.90;89.40;;;;;;5037817;28;20557;-82
2022/12/13 08:43:33;;;;;;;55.55;33.88;;;-3273.00;89.20;;;;;;5031629;28;20036;-79
2022/12/13 08:45:59;;;;;;;49.50;30.38;;;-3273.10;89.00;;;;;;5029989;28;20030;-81
2022/12/13 08:48:25;;;;;;;49.80;33.25;;;-3273.30;89.10;;;;;;5032834;28;20052;-78
2022/12/13 08:50:51;;;;;;;52.78;33.17;;;-3273.50;89.00;;;;;;5030341;28;20376;-77
2022/12/13 08:53:16;;;;;;;53.63;31.13;;;-3273.70;88.70;;;;;;5032958;28;20034;-79
2022/12/13 08:55:42;;;;;;;49.47;30.95;;;-3273.90;88.20;;;;;;5027830;28;20032;-79
2022/12/13 08:58:10;;;;;;;52.85;31.45;;;-3274.00;87.70;;;;;;5027026;28;20377;-77
2022/12/13 09:00:37;;;;;;;50.33;31.98;;;-3273.90;87.20;;;;;;5033166;28;20038;-78
2022/12/13 09:03:05;;;;;;;48.40;31.08;;;-3274.00;87.30;;;;;;5035099;28;20416;-77
2022/12/13 09:05:32;;;;;;;49.00;30.25;;;-3274.20;87.40;;;;;;5033303;28;20079;-76
2022/12/13 09:08:08;;;;;;;;;;;;;;;;;;;;;
2022/12/13 09:10:44;;;;;;;47.10;29.70;;;-3274.40;86.60;;;;;;5034758;28;20311;-77
2022/12/13 09:13:10;;;;;;;45.53;28.58;;;-3274.50;86.70;;;;;;5033757;28;20025;-77
2022/12/13 09:15:47;;;;;;;48.95;32.17;;;-3274.40;86.40;;;;;;5030534;28;20526;-77
2022/12/13 09:18:13;;;;;;;45.55;29.23;;;-3274.50;86.60;;;;;;5031226;28;20037;-78
2022/12/13 09:20:41;;;;;;;45.55;29.10;;;-3274.60;86.70;;;;;;5032960;28;20031;-77
2022/12/13 09:23:26;;;;;;;47.55;29.58;;;-3274.70;86.60;;;;;;5029277;28;20049;-78
2022/12/13 09:25:55;;;;;;;;;;;-3274.90;86.60;;;;;;5031301;28;20033;-78
2022/12/13 09:28:21;;;;;;;46.88;27.35;;;-3275.10;86.20;;;;;;5029605;28;19928;-80
2022/12/13 09:30:50;;;;;;;41.88;25.63;;;-3275.40;86.10;;;;;;5033183;28;20048;-76
2022/12/13 09:33:19;;;;;;;42.03;25.50;;;-3275.50;84.90;;;;;;5028742;28;20033;-77
2022/12/13 09:35:44;;;;;;;35.60;23.58;;;-3275.80;84.50;;;;;;5038379;28;20071;-75
2022/12/13 09:38:13;;;;;;;36.80;22.85;;;-3275.90;82.70;;;;;;5030636;28;20069;-77
2022/12/13 09:40:44;;;;;;;36.97;23.30;;;-3276.00;82.00;;;;;;5026893;28;20037;-77
2022/12/13 09:43:23;;;;;;;37.85;24.45;;;-3276.00;81.50;;;;;;5032605;28;20036;-76
2022/12/13 09:45:51;;;;;;;37.38;23.48;;;-3276.10;81.50;;;;;;5031794;28;20106;-77
2022/12/13 09:48:23;;;;;;;34.78;24.20;;;-3276.10;81.00;;;;;;5041348;28;20064;-77
2022/12/13 09:50:50;;;;;;;33.20;23.10;;;-3276.10;80.80;;;;;;5040971;28;20045;-79
2022/12/13 09:53:18;;;;;;;37.38;24.17;;;-3276.30;81.00;;;;;;5045745;28;20029;-77
2022/12/13 09:55:50;;;;;;;33.90;22.30;;;-3276.40;80.50;;;;;;5040368;28;20863;-76
2022/12/13 09:58:30;;;;;;;36.25;23.23;;;-3276.50;80.60;;;;;;5039295;28;20043;-75
2022/12/13 10:00:59;;;;;;;32.38;21.80;;;-3276.70;79.60;;;;;;5030106;28;20084;-75
2022/12/13 10:03:25;;;;;;;31.17;22.50;;;-3276.70;79.10;;;;;;5027620;28;20060;-79
2022/12/13 10:06:30;;;;;;;34.03;22.00;;;0.00;79.00;;;;;;5025760;28;20049;-76
2022/12/13 10:09:01;;;;;;;36.25;22.00;;;0.00;78.40;;;;;;5033847;28;20040;-74
2022/12/13 10:11:28;;;;;;;32.17;21.63;;;0.00;78.20;;;;;;5027893;28;20109;-77
2022/12/13 10:14:18;;;;;;;32.28;21.70;;;0.00;77.80;;;;;;5034944;28;20044;-80
2022/12/13 10:16:56;;;;;;;33.47;21.38;;;0.00;77.70;;;;;;5020741;28;20101;-77
2022/12/13 10:19:43;;;;;;;32.97;22.35;;;0.00;77.60;;;;;;5031065;28;20037;-78
2022/12/13 10:22:17;;;;;;;35.28;24.48;;;0.10;77.80;;;;;;5031483;28;20561;-78
2022/12/13 10:24:51;;;;;;;32.60;21.17;;;0.00;77.70;;;;;;5029576;28;20037;-78
2022/12/13 10:27:27;;;;;;;34.55;22.83;;;0.00;77.60;;;;;;5031539;28;20746;-79
2022/12/13 10:30:05;;;;;;;33.30;23.08;;;0.10;77.30;;;;;;5034271;28;20037;-77
2022/12/13 10:32:42;;;;;;;32.92;21.70;;;0.20;77.60;;;;;;5028925;28;20045;-77
2022/12/13 10:35:27;;;;;;;29.60;22.15;;;0.30;77.10;;;;;;5031606;28;20033;-76
2022/12/13 10:37:55;;;;;;;31.90;21.80;;;0.30;76.60;;;;;;5033508;28;20033;-78
2022/12/13 10:40:33;;;;;;;31.42;21.75;;;0.50;76.40;;;;;;5027618;28;20045;-79
2022/12/13 10:43:25;;;;;;;;;;;;;;;;;;;;;
2022/12/13 10:46:02;;;;;;;32.60;22.27;;;0.30;75.80;;;;;;5028317;28;20055;-78
2022/12/13 10:48:38;;;;;;;30.73;21.90;;;0.30;76.20;;;;;;5027684;28;20049;-78
2022/12/13 10:51:16;;;;;;;32.67;22.52;;;0.40;76.00;;;;;;5027714;28;20069;-77
2022/12/13 10:53:56;;;;;;;34.67;22.65;;;0.20;75.90;;;;;;5037420;28;20032;-77
2022/12/13 10:56:33;;;;;;;37.58;23.10;;;0.10;76.50;;;;;;5031295;28;20089;-75
2022/12/13 10:59:25;;;;;;;40.58;24.65;;;0.10;76.80;;;;;;5032321;28;20365;-75
2022/12/13 11:01:53;;;;;;;39.15;25.90;;;0.10;77.60;;;;;;5027340;28;20063;-76
2022/12/13 11:04:24;;;;;;;33.67;23.65;;;0.10;77.00;;;;;;5023789;28;20057;-76
2022/12/13 11:06:50;;;;;;;34.05;22.52;;;0.20;77.20;;;;;;5033639;28;20111;-79
2022/12/13 11:09:25;;;;;;;35.35;23.25;;;0.20;76.70;;;;;;5031043;28;20048;-75
2022/12/13 11:11:57;;;;;;;37.20;24.13;;;0.10;77.40;;;;;;5031954;28;20091;-78
2022/12/13 11:14:26;;;;;;;32.80;23.13;;;0.20;77.50;;;;;;5025293;28;20217;-78
2022/12/13 11:16:56;;;;;;;34.80;23.30;;;0.20;77.40;;;;;;5030959;28;20035;-76
2022/12/13 11:19:47;;;;;;;32.90;23.52;;;0.20;77.10;;;;;;5028290;28;20331;-76
2022/12/13 11:22:45;;;;;;;31.90;21.45;;;0.20;77.10;;;;;;5022712;28;20469;-74
2022/12/13 11:25:27;;;;;;;33.33;21.98;;;0.30;76.90;;;;;;5027228;28;20053;-74
2022/12/13 11:27:56;;;;;;;34.60;23.23;;;0.20;76.30;;;;;;5017817;28;20032;-75
2022/12/13 11:30:51;;;;;;;34.67;22.30;;;0.10;76.90;;;;;;5027447;28;20429;-75
2022/12/13 11:33:46;;;;;;;32.95;22.42;;;0.30;77.60;;;;;;5023415;28;20057;-75
2022/12/13 11:36:32;;;;;;;38.03;24.47;;;0.50;77.30;;;;;;5023225;28;20029;-76
2022/12/13 11:39:40;;;;;;;36.35;25.75;;;0.60;77.40;;;;;;5033412;28;20049;-78
2022/12/13 11:42:24;;;;;;;37.35;23.30;;;0.60;76.90;;;;;;5014629;28;20049;-74
2022/12/13 11:44:56;;;;;;;37.75;24.58;;;0.70;76.50;;;;;;5010823;28;20152;-77
2022/12/13 11:47:47;;;;;;;34.45;23.35;;;0.80;75.80;;;;;;5011137;28;20042;-77
2022/12/13 11:50:29;;;;;;;35.78;23.25;;;0.80;75.80;;;;;;5015611;28;20046;-78
2022/12/13 11:53:09;;;;;;;34.88;23.52;;;0.80;75.80;;;;;;5019058;28;20034;-76
2022/12/13 11:55:55;;;;;;;36.13;24.30;;;0.80;76.20;;;;;;5008177;28;20410;-76
2022/12/13 11:58:24;;;;;;;33.75;23.88;;;0.90;76.50;;;;;;5030398;28;20072;-76
2022/12/13 12:01:01;;;;;;;35.28;24.92;;;1.00;76.10;;;;;;5031594;28;20025;-77
2022/12/13 12:03:44;;;;;;;33.83;25.35;;;1.00;76.00;;;;;;5031211;28;20036;-77
2022/12/13 12:06:25;;;;;;;35.35;23.27;;;1.10;75.90;;;;;;5035285;28;20033;-76
2022/12/13 12:09:00;;;;;;;32.95;22.83;;;1.10;75.20;;;;;;5034598;28;20042;-77
2022/12/13 12:11:28;;;;;;;;;;;1.10;75.40;;;;;;5025772;28;20025;-76
2022/12/13 12:14:02;;;;;;;32.85;21.45;;;1.10;75.50;;;;;;5030029;28;19914;-77
2022/12/13 12:16:59;;;;;;;36.00;22.98;;;1.00;75.50;;;;;;5029007;28;20512;-77
2022/12/13 12:19:34;;;;;;;33.67;21.38;;;1.10;75.40;;;;;;5028265;28;20040;-76
2022/12/13 12:22:19;;;;;;;35.40;22.90;;;1.00;75.60;;;;;;5032144;28;20033;-75
2022/12/13 12:25:03;;;;;;;34.30;22.37;;;1.00;76.00;;;;;;5034327;28;20037;-76
2022/12/13 12:28:04;;;;;;;32.97;22.60;;;0.90;75.90;;;;;;5033338;28;20291;-76
2022/12/13 12:30:35;;;;;;;39.47;24.02;;;0.90;76.40;;;;;;5030528;28;20346;-76
2022/12/13 12:33:28;;;;;;;32.85;22.52;;;1.00;76.80;;;;;;5037165;28;20357;-76
2022/12/13 12:36:18;;;;;;;37.13;24.02;;;1.10;76.70;;;;;;5036854;28;20108;-78
2022/12/13 12:39:08;;;;;;;37.15;22.95;;;1.10;76.00;;;;;;5026579;28;20128;-75